Time;durP1;ratioP1;P1;durP2;ratioP2;P2;SDS_P1;SDS_P2;PMS_P1;PMS_P2;Temp;Humidity;BMP_temperature;BMP_pressure;BME280_temperature;BME280_humidity;BME280_pressure;Samples;Min_cycle;Max_cycle;Signal;HPM_P1;HPM_P2
2021/06/06 00:02:05;;;;;;;;;;;14.40;96.50;;;;;;5091784;28;19924;-71
2021/06/06 00:04:31;;;;;;;;;;;14.40;96.60;;;;;;5077745;28;20300;-71
2021/06/06 00:06:56;;;;;;;;;;;14.40;96.60;;;;;;5091464;28;20006;-71
2021/06/06 00:09:22;;;;;;;;;;;14.40;96.50;;;;;;5088317;28;20296;-70
2021/06/06 00:11:50;;;;;;;;;;;14.40;96.50;;;;;;5098148;28;19986;-71
2021/06/06 00:14:20;;;;;;;;;;;14.40;96.50;;;;;;5097939;28;19951;-71
2021/06/06 00:16:47;;;;;;;;;;;14.30;96.50;;;;;;5097586;28;20011;-71
2021/06/06 00:19:14;;;;;;;;;;;14.40;96.50;;;;;;5096968;28;19916;-70
2021/06/06 00:21:40;;;;;;;;;;;14.30;96.60;;;;;;5096977;28;19924;-70
2021/06/06 00:24:07;;;;;;;;;;;14.40;96.60;;;;;;5097973;28;19965;-70
2021/06/06 00:26:32;;;;;;;;;;;14.40;96.50;;;;;;5053663;28;20378;-70
2021/06/06 00:28:58;;;;;;;;;;;14.40;96.40;;;;;;5092970;28;19916;-70
2021/06/06 00:31:30;;;;;;;;;;;14.40;96.50;;;;;;5080053;28;19912;-70
2021/06/06 00:33:59;;;;;;;;;;;14.40;96.60;;;;;;5077920;28;19912;-70
2021/06/06 00:36:24;;;;;;;;;;;14.40;96.50;;;;;;5078635;28;20246;-71
2021/06/06 00:38:52;;;;;;;;;;;14.40;96.50;;;;;;5096440;28;19912;-70
2021/06/06 00:41:19;;;;;;;;;;;14.40;96.40;;;;;;5097244;28;19918;-69
2021/06/06 00:43:50;;;;;;;;;;;14.40;96.50;;;;;;5097886;28;19948;-69
2021/06/06 00:46:16;;;;;;;;;;;14.40;96.50;;;;;;5096622;28;19912;-70
2021/06/06 00:48:42;;;;;;;;;;;14.40;96.40;;;;;;5077596;28;20042;-69
2021/06/06 00:51:31;;;;;;;;;;;14.40;96.30;;;;;;5094493;28;20031;-69
2021/06/06 00:54:10;;;;;;;;;;;14.40;96.50;;;;;;5078409;28;19920;-69
2021/06/06 00:56:35;;;;;;;;;;;14.40;96.40;;;;;;5078998;28;19923;-70
2021/06/06 00:59:01;;;;;;;;;;;14.30;96.40;;;;;;5096780;28;19916;-70
2021/06/06 01:01:27;;;;;;;;;;;14.30;96.30;;;;;;5096826;28;20224;-70
2021/06/06 01:03:53;;;;;;;;;;;14.30;96.50;;;;;;5087422;28;19912;-70
2021/06/06 01:06:25;;;;;;;;;;;14.40;96.40;;;;;;5095578;28;20020;-70
2021/06/06 01:08:51;;;;;;;;;;;14.30;96.50;;;;;;5096649;28;19916;-70
2021/06/06 01:11:24;;;;;;;;;;;14.30;96.40;;;;;;5088317;28;19912;-70
2021/06/06 01:13:55;;;;;;;;;;;14.30;96.50;;;;;;5096035;28;19912;-70
2021/06/06 01:16:26;;;;;;;;;;;14.30;96.60;;;;;;5095760;28;19959;-70
2021/06/06 01:18:52;;;;;;;;;;;14.30;96.50;;;;;;5095981;28;19916;-70
2021/06/06 01:21:26;;;;;;;;;;;14.30;96.60;;;;;;5094976;28;19919;-70
2021/06/06 01:24:04;;;;;;;;;;;14.20;96.50;;;;;;5092316;28;19955;-70
2021/06/06 01:26:32;;;;;;;;;;;14.20;96.60;;;;;;5096110;28;19912;-71
2021/06/06 01:29:18;;;;;;;;;;;14.20;96.70;;;;;;5095193;28;19923;-71
2021/06/06 01:31:48;;;;;;;;;;;14.10;96.70;;;;;;5088894;28;19919;-70
2021/06/06 01:34:16;;;;;;;;;;;14.20;96.70;;;;;;5096582;28;19913;-70
2021/06/06 01:36:44;;;;;;;;;;;14.10;96.70;;;;;;5087838;28;19931;-70
2021/06/06 01:39:09;;;;;;;;;;;14.10;96.80;;;;;;5094537;28;19919;-70
2021/06/06 01:41:37;;;;;;;;;;;14.10;96.60;;;;;;5094320;28;19939;-70
2021/06/06 01:44:05;;;;;;;;;;;14.10;96.80;;;;;;5090906;28;19916;-71
2021/06/06 01:46:39;;;;;;;;;;;14.10;96.90;;;;;;5093157;28;19957;-69
2021/06/06 01:49:06;;;;;;;;;;;14.10;96.80;;;;;;5095079;28;19919;-70
2021/06/06 01:51:37;;;;;;;;;;;14.20;96.80;;;;;;5091526;28;20258;-70
2021/06/06 01:54:09;;;;;;;;;;;14.20;96.80;;;;;;5088003;28;19924;-68
2021/06/06 01:56:38;;;;;;;;;;;14.20;96.80;;;;;;5092288;28;20006;-70
2021/06/06 01:59:06;;;;;;;;;;;14.20;96.80;;;;;;5095153;28;19987;-70
2021/06/06 02:01:32;;;;;;;;;;;14.20;96.80;;;;;;5094144;28;19986;-69
2021/06/06 02:03:58;;;;;;;;;;;14.10;96.80;;;;;;5094982;28;20295;-70
2021/06/06 02:06:27;;;;;;;;;;;14.10;96.80;;;;;;5076449;28;19912;-70
2021/06/06 02:08:52;;;;;;;;;;;14.00;96.70;;;;;;5095553;28;19963;-70
2021/06/06 02:11:24;;;;;;;;;;;14.00;96.80;;;;;;5077449;28;20274;-70
2021/06/06 02:13:51;;;;;;;;;;;14.00;96.80;;;;;;5095587;28;20177;-70
2021/06/06 02:16:23;;;;;;;;;;;13.90;96.90;;;;;;5095595;28;19931;-71
2021/06/06 02:18:49;;;;;;;;;;;13.90;96.80;;;;;;5091568;28;19912;-71
2021/06/06 02:21:16;;;;;;;;;;;13.90;97.10;;;;;;5075589;28;19918;-69
2021/06/06 02:23:43;;;;;;;;;;;13.90;97.10;;;;;;5074318;28;20293;-70
2021/06/06 02:26:08;;;;;;;;;;;13.90;96.90;;;;;;5088054;28;20212;-69
2021/06/06 02:28:34;;;;;;;;;;;13.90;97.10;;;;;;5095155;28;19924;-69
2021/06/06 02:31:07;;;;;;;;;;;13.90;97.00;;;;;;5095405;28;19924;-69
2021/06/06 02:33:34;;;;;;;;;;;13.90;97.00;;;;;;5094170;28;19919;-69
2021/06/06 02:36:03;;;;;;;;;;;13.90;97.00;;;;;;5085753;28;20305;-69
2021/06/06 02:38:31;;;;;;;;;;;13.90;96.90;;;;;;5077750;28;19912;-70
2021/06/06 02:41:03;;;;;;;;;;;13.90;96.90;;;;;;5077842;28;20706;-69
2021/06/06 02:43:32;;;;;;;;;;;13.80;97.00;;;;;;5094924;28;19916;-70
2021/06/06 02:45:59;;;;;;;;;;;13.80;96.90;;;;;;5094887;28;19912;-70
2021/06/06 02:48:38;;;;;;;;;;;13.70;96.90;;;;;;5071373;28;19959;-70
2021/06/06 02:51:06;;;;;;;;;;;13.70;96.90;;;;;;5090675;28;19913;-70
2021/06/06 02:53:34;;;;;;;;;;;13.60;96.90;;;;;;5091171;28;19912;-71
2021/06/06 02:56:01;;;;;;;;;;;13.60;96.90;;;;;;5074295;28;19920;-70
2021/06/06 02:58:39;;;;;;;;;;;13.60;96.90;;;;;;5090333;28;19912;-70
2021/06/06 03:01:07;;;;;;;;;;;13.60;96.70;;;;;;5069452;28;19976;-71
2021/06/06 03:03:34;;;;;;;;;;;13.60;96.70;;;;;;5089993;28;19917;-70
2021/06/06 03:06:02;;;;;;;;;;;13.50;96.60;;;;;;5087457;28;19919;-70
2021/06/06 03:08:28;;;;;;;;;;;13.50;96.70;;;;;;5086417;28;19912;-70
2021/06/06 03:10:55;;;;;;;;;;;13.50;96.70;;;;;;5092342;28;19977;-71
2021/06/06 03:13:32;;;;;;;;;;;13.40;96.60;;;;;;5087396;28;19958;-71
2021/06/06 03:15:59;;;;;;;;;;;13.50;96.40;;;;;;5091831;28;20003;-70
2021/06/06 03:18:27;;;;;;;;;;;13.40;96.40;;;;;;5074845;28;19912;-70
2021/06/06 03:21:09;;;;;;;;;;;13.40;96.50;;;;;;5075172;28;19912;-70
2021/06/06 03:23:34;;;;;;;;;;;13.30;96.40;;;;;;5077208;28;20304;-69
2021/06/06 03:26:08;;;;;;;;;;;13.30;96.30;;;;;;5092136;28;19918;-71
2021/06/06 03:28:35;;;;;;;;;;;13.30;96.30;;;;;;5094745;28;20249;-71
2021/06/06 03:31:02;;;;;;;;;;;13.20;96.30;;;;;;5095294;28;20007;-71
2021/06/06 03:33:53;;;;;;;;;;;13.30;96.20;;;;;;5102294;28;19912;-70
2021/06/06 03:36:29;;;;;;;;;;;13.20;96.10;;;;;;5075533;28;19959;-69
2021/06/06 03:38:55;;;;;;;;;;;13.30;95.90;;;;;;5076619;28;19920;-71
2021/06/06 03:41:21;;;;;;;;;;;13.20;96.00;;;;;;5076351;28;20011;-70
2021/06/06 03:43:47;;;;;;;;;;;13.30;95.80;;;;;;5093310;28;20358;-70
2021/06/06 03:46:12;;;;;;;;;;;13.20;96.10;;;;;;5096458;28;19912;-70
2021/06/06 03:48:38;;;;;;;;;;;13.20;95.90;;;;;;5096417;28;19913;-70
2021/06/06 03:51:05;;;;;;;;;;;13.20;95.80;;;;;;5095533;28;19912;-71
2021/06/06 03:53:31;;;;;;;;;;;13.20;95.80;;;;;;5097436;28;19916;-71
2021/06/06 03:55:56;;;;;;;;;;;13.30;95.90;;;;;;5096692;28;19931;-71
2021/06/06 03:58:22;;;;;;;;;;;13.30;95.90;;;;;;5096599;28;19916;-71
2021/06/06 04:00:48;;;;;;;;;;;13.20;95.80;;;;;;5098141;28;20304;-71
2021/06/06 04:03:15;;;;;;;;;;;13.20;95.80;;;;;;5094016;28;20278;-71
2021/06/06 04:05:41;;;;;;;;;;;13.20;95.80;;;;;;5091424;28;19916;-71
2021/06/06 04:08:07;;;;;;;;;;;13.20;95.80;;;;;;5096619;28;19912;-71
2021/06/06 04:10:33;;;;;;;;;;;13.20;96.00;;;;;;5098271;28;19919;-71
2021/06/06 04:12:59;;;;;;;;;;;13.20;95.80;;;;;;5090086;28;19931;-71
2021/06/06 04:15:25;;;;;;;;;;;13.10;95.90;;;;;;5085347;28;20304;-72
2021/06/06 04:17:50;;;;;;;;;;;13.10;96.00;;;;;;5097869;28;19944;-71
2021/06/06 04:20:17;;;;;;;;;;;13.20;95.80;;;;;;5086651;28;19912;-71
2021/06/06 04:22:42;;;;;;;;;;;13.20;96.00;;;;;;5093209;28;19930;-71
2021/06/06 04:25:09;;;;;;;;;;;13.20;95.90;;;;;;5072315;28;20224;-71
2021/06/06 04:27:34;;;;;;;;;;;13.20;95.80;;;;;;5097358;28;19912;-71
2021/06/06 04:30:01;;;;;;;;;;;13.20;95.90;;;;;;5094579;28;20300;-71
2021/06/06 04:32:26;;;;;;;;;;;13.20;96.10;;;;;;5093829;28;19955;-71
2021/06/06 04:34:52;;;;;;;;;;;13.10;96.30;;;;;;5095143;28;20339;-71
2021/06/06 04:37:18;;;;;;;;;;;13.10;96.30;;;;;;5094078;28;19947;-71
2021/06/06 04:39:43;;;;;;;;;;;13.10;96.30;;;;;;5093565;28;19996;-71
2021/06/06 04:42:10;;;;;;;;;;;13.10;96.20;;;;;;5092341;28;19919;-71
2021/06/06 04:44:36;;;;;;;;;;;13.10;96.20;;;;;;5079142;28;19912;-72
2021/06/06 04:47:03;;;;;;;;;;;13.10;96.10;;;;;;5097105;28;19961;-71
2021/06/06 04:49:29;;;;;;;;;;;13.10;96.30;;;;;;5096845;28;19912;-72
2021/06/06 04:51:55;;;;;;;;;;;13.10;96.10;;;;;;5095843;28;19916;-71
2021/06/06 04:54:20;;;;;;;;;;;13.10;96.10;;;;;;5093430;28;19931;-71
2021/06/06 04:56:46;;;;;;;;;;;13.10;96.10;;;;;;5097254;28;19912;-72
2021/06/06 04:59:12;;;;;;;;;;;13.10;96.10;;;;;;5095664;28;19916;-71
2021/06/06 05:01:37;;;;;;;;;;;13.10;96.10;;;;;;5096818;28;20283;-71
2021/06/06 05:04:03;;;;;;;;;;;13.20;96.00;;;;;;5089410;28;20012;-71
2021/06/06 05:06:29;;;;;;;;;;;13.20;96.20;;;;;;5088824;28;19919;-72
2021/06/06 05:08:54;;;;;;;;;;;13.10;96.10;;;;;;5095767;28;19912;-72
2021/06/06 05:11:20;;;;;;;;;;;13.20;95.90;;;;;;5097181;28;19919;-72
2021/06/06 05:13:45;;;;;;;;;;;13.20;96.00;;;;;;5075986;28;19919;-72
2021/06/06 05:16:11;;;;;;;;;;;13.20;96.00;;;;;;5091007;28;20115;-71
2021/06/06 05:18:36;;;;;;;;;;;13.20;96.00;;;;;;5079248;28;19912;-71
2021/06/06 05:21:02;;;;;;;;;;;13.20;95.90;;;;;;5086457;28;20323;-71
2021/06/06 05:23:29;;;;;;;;;;;13.20;96.10;;;;;;5088724;28;19973;-71
2021/06/06 05:25:55;;;;;;;;;;;13.20;96.20;;;;;;5095293;28;19927;-71
2021/06/06 05:28:22;;;;;;;;;;;13.20;95.90;;;;;;5076053;28;19913;-72
2021/06/06 05:30:48;;;;;;;;;;;13.10;95.90;;;;;;5095725;28;19919;-71
2021/06/06 05:33:14;;;;;;;;;;;13.20;95.80;;;;;;5094367;28;19965;-71
2021/06/06 05:35:40;;;;;;;;;;;13.20;96.00;;;;;;5093048;28;20248;-72
2021/06/06 05:38:07;;;;;;;;;;;13.30;96.00;;;;;;5077364;28;19963;-71
2021/06/06 05:40:33;;;;;;;;;;;13.30;95.90;;;;;;5088818;28;19912;-71
2021/06/06 05:42:59;;;;;;;;;;;13.30;96.00;;;;;;5094223;28;19927;-71
2021/06/06 05:45:25;;;;;;;;;;;13.40;95.90;;;;;;5073165;28;20224;-71
2021/06/06 05:47:51;;;;;;;;;;;13.40;96.50;;;;;;5096390;28;19916;-71
2021/06/06 05:50:18;;;;;;;;;;;13.40;96.60;;;;;;5095784;28;19913;-71
2021/06/06 05:52:43;;;;;;;;;;;13.30;96.40;;;;;;5093916;28;19916;-71
2021/06/06 05:55:12;;;;;;;;;;;13.40;96.40;;;;;;5074197;28;19934;-71
2021/06/06 05:57:38;;;;;;;;;;;13.40;96.20;;;;;;5083320;28;19912;-71
2021/06/06 06:00:08;;;;;;;;;;;13.40;96.40;;;;;;5096211;28;20006;-71
2021/06/06 06:02:34;;;;;;;;;;;13.40;96.20;;;;;;5095350;28;19916;-72
2021/06/06 06:04:59;;;;;;;;;;;13.40;96.50;;;;;;5086386;28;19916;-70
2021/06/06 06:07:25;;;;;;;;;;;13.40;96.60;;;;;;5087392;28;19935;-70
2021/06/06 06:09:51;;;;;;;;;;;13.40;96.60;;;;;;5095968;28;20296;-71
2021/06/06 06:12:16;;;;;;;;;;;13.50;96.50;;;;;;5094520;28;19958;-69
2021/06/06 06:14:42;;;;;;;;;;;13.50;96.40;;;;;;5091103;28;19935;-69
2021/06/06 06:17:07;;;;;;;;;;;13.50;96.20;;;;;;5094474;28;19920;-69
2021/06/06 06:19:33;;;;;;;;;;;13.50;96.60;;;;;;5076863;28;19919;-71
2021/06/06 06:21:58;;;;;;;;;;;13.50;96.70;;;;;;5088690;28;20301;-70
2021/06/06 06:24:24;;;;;;;;;;;13.40;96.50;;;;;;5094496;28;20002;-70
2021/06/06 06:26:49;;;;;;;;;;;13.40;96.40;;;;;;5093326;28;20277;-70
2021/06/06 06:29:15;;;;;;;;;;;13.40;96.60;;;;;;5093470;28;21456;-70
2021/06/06 06:31:41;;;;;;;;;;;13.30;96.70;;;;;;5095015;28;20452;-70
2021/06/06 06:34:07;;;;;;;;;;;13.30;96.40;;;;;;5089512;28;19962;-70
2021/06/06 06:36:33;;;;;;;;;;;13.30;96.20;;;;;;5093476;28;20403;-69
2021/06/06 06:38:58;;;;;;;;;;;13.40;96.20;;;;;;5094243;28;20014;-70
2021/06/06 06:41:28;;;;;;;;;;;13.50;96.60;;;;;;5089828;28;19912;-70
2021/06/06 06:43:56;;;;;;;;;;;13.40;96.40;;;;;;5090881;28;19912;-70
2021/06/06 06:46:22;;;;;;;;;;;13.30;96.40;;;;;;5082443;28;20279;-69
2021/06/06 06:48:48;;;;;;;;;;;13.40;96.20;;;;;;5092227;28;19913;-69
2021/06/06 06:51:14;;;;;;;;;;;13.40;95.90;;;;;;5091197;28;19912;-69
2021/06/06 06:53:40;;;;;;;;;;;13.50;95.90;;;;;;5095529;28;20651;-69
2021/06/06 06:56:06;;;;;;;;;;;13.50;96.00;;;;;;5088960;28;19912;-69
2021/06/06 06:58:32;;;;;;;;;;;13.50;95.90;;;;;;5094659;28;19916;-70
2021/06/06 07:00:57;;;;;;;;;;;13.50;95.80;;;;;;5088766;28;19951;-69
2021/06/06 07:03:25;;;;;;;;;;;13.50;95.80;;;;;;5092123;28;20011;-69
2021/06/06 07:05:50;;;;;;;;;;;13.50;95.80;;;;;;5091705;28;19956;-70
2021/06/06 07:08:22;;;;;;;;;;;13.50;96.00;;;;;;5094451;28;19912;-69
2021/06/06 07:10:47;;;;;;;;;;;13.50;96.00;;;;;;5088191;28;19913;-69
2021/06/06 07:13:13;;;;;;;;;;;13.60;96.00;;;;;;5097203;28;19919;-70
2021/06/06 07:15:38;;;;;;;;;;;13.50;96.00;;;;;;5094513;28;19916;-69
2021/06/06 07:18:07;;;;;;;;;;;13.60;95.80;;;;;;5091322;28;19912;-70
2021/06/06 07:20:35;;;;;;;;;;;13.60;96.20;;;;;;5098452;28;19912;-69
2021/06/06 07:23:02;;;;;;;;;;;13.50;95.80;;;;;;5079231;28;19969;-70
2021/06/06 07:25:27;;;;;;;;;;;13.50;96.00;;;;;;5095868;28;20225;-70
2021/06/06 07:27:54;;;;;;;;;;;13.50;95.70;;;;;;5091162;28;19920;-69
2021/06/06 07:30:24;;;;;;;;;;;13.50;95.80;;;;;;5097971;28;19994;-69
2021/06/06 07:32:50;;;;;;;;;;;13.60;95.80;;;;;;5093875;28;20348;-69
2021/06/06 07:35:19;;;;;;;;;;;13.60;95.80;;;;;;5095761;28;19919;-70
2021/06/06 07:37:47;;;;;;;;;;;13.50;95.70;;;;;;5095850;28;19973;-68
2021/06/06 07:40:14;;;;;;;;;;;13.60;95.80;;;;;;5096727;28;19952;-69
2021/06/06 07:42:39;;;;;;;;;;;13.70;95.60;;;;;;5094785;28;19962;-70
2021/06/06 07:45:06;;;;;;;;;;;13.80;96.00;;;;;;5097331;28;19955;-69
2021/06/06 07:47:32;;;;;;;;;;;13.70;96.00;;;;;;5099050;28;19916;-70
2021/06/06 07:49:57;;;;;;;;;;;13.80;96.00;;;;;;5095741;28;20198;-69
2021/06/06 07:52:23;;;;;;;;;;;13.80;96.20;;;;;;5072289;28;20045;-69
2021/06/06 07:54:48;;;;;;;;;;;13.70;96.00;;;;;;5092739;28;19912;-69
2021/06/06 07:57:14;;;;;;;;;;;13.80;95.90;;;;;;5091990;28;19912;-69
2021/06/06 07:59:40;;;;;;;;;;;13.90;96.10;;;;;;5076724;28;19913;-70
2021/06/06 08:02:05;;;;;;;;;;;13.90;95.90;;;;;;5101593;28;19961;-69
2021/06/06 08:04:31;;;;;;;;;;;14.00;96.00;;;;;;5090874;28;19920;-70
2021/06/06 08:06:57;;;;;;;;;;;13.90;96.20;;;;;;5096664;28;20353;-70
2021/06/06 08:09:23;;;;;;;;;;;13.90;96.30;;;;;;5098201;28;19912;-69
2021/06/06 08:11:48;;;;;;;;;;;13.80;96.00;;;;;;5084898;28;19918;-69
2021/06/06 08:14:14;;;;;;;;;;;13.80;96.10;;;;;;5098295;28;20005;-69
2021/06/06 08:16:41;;;;;;;;;;;13.80;95.80;;;;;;5097884;28;20394;-69
2021/06/06 08:19:06;;;;;;;;;;;13.90;95.90;;;;;;5096360;28;20018;-69
2021/06/06 08:21:36;;;;;;;;;;;13.90;96.10;;;;;;5087816;28;19991;-69
2021/06/06 08:24:02;;;;;;;;;;;13.90;95.90;;;;;;5091203;28;19995;-69
2021/06/06 08:26:28;;;;;;;;;;;14.10;96.00;;;;;;5091660;28;19919;-70
2021/06/06 08:28:54;;;;;;;;;;;14.10;96.10;;;;;;5096174;28;20259;-69
2021/06/06 08:31:21;;;;;;;;;;;14.10;96.30;;;;;;5080061;28;19957;-69
2021/06/06 08:33:47;;;;;;;;;;;14.10;96.50;;;;;;5087503;28;20301;-69
2021/06/06 08:36:21;;;;;;;;;;;14.20;96.30;;;;;;5090006;28;19969;-69
2021/06/06 08:38:47;;;;;;;;;;;14.20;96.20;;;;;;5093714;28;19912;-69
2021/06/06 08:41:15;;;;;;;;;;;14.20;96.40;;;;;;5074821;28;19967;-70
2021/06/06 08:43:47;;;;;;;;;;;14.20;96.20;;;;;;5095312;28;19965;-70
2021/06/06 08:46:14;;;;;;;;;;;14.20;96.30;;;;;;5094124;28;19913;-69
2021/06/06 08:48:40;;;;;;;;;;;14.10;96.70;;;;;;5078906;28;20209;-69
2021/06/06 08:51:11;;;;;;;;;;;14.00;96.40;;;;;;5093364;28;19916;-70
2021/06/06 08:53:54;;;;;;;;;;;14.00;96.40;;;;;;5091864;28;19912;-70
2021/06/06 08:56:22;;;;;;;;;;;14.00;96.00;;;;;;5096361;28;20244;-70
2021/06/06 08:58:51;;;;;;;;;;;14.10;96.00;;;;;;5078938;28;19947;-69
2021/06/06 09:01:22;;;;;;;;;;;14.00;96.40;;;;;;5087286;28;19920;-70
2021/06/06 09:03:48;;;;;;;;;;;14.00;96.00;;;;;;5077688;28;19973;-69
2021/06/06 09:06:20;;;;;;;;;;;14.00;96.20;;;;;;5092082;28;19912;-69
2021/06/06 09:08:46;;;;;;;;;;;14.00;96.00;;;;;;5095933;28;20328;-69
2021/06/06 09:11:14;;;;;;;;;;;14.00;96.10;;;;;;5089481;28;19930;-69
2021/06/06 09:13:39;;;;;;;;;;;14.00;96.00;;;;;;5095712;28;21287;-69
2021/06/06 09:16:11;;;;;;;;;;;14.00;95.90;;;;;;5096765;28;19923;-71
2021/06/06 09:18:37;;;;;;;;;;;14.10;95.90;;;;;;5091807;28;20213;-71
2021/06/06 09:21:11;;;;;;;;;;;14.10;95.80;;;;;;5089430;28;19912;-71
2021/06/06 09:23:37;;;;;;;;;;;14.20;95.80;;;;;;5095705;28;19934;-70
2021/06/06 09:26:31;;;;;;;;;;;14.20;96.40;;;;;;5096658;28;19924;-71
2021/06/06 09:29:20;;;;;;;;;;;14.20;96.20;;;;;;5074858;28;19912;-70
2021/06/06 09:31:46;;;;;;;;;;;14.30;96.20;;;;;;5087116;28;19912;-70
2021/06/06 09:34:17;;;;;;;;;;;14.30;96.20;;;;;;5078726;28;19922;-70
2021/06/06 09:36:57;;;;;;;;;;;14.20;96.20;;;;;;5094765;28;19912;-71
2021/06/06 09:39:23;;;;;;;;;;;14.30;96.40;;;;;;5099581;28;19918;-70
2021/06/06 09:41:57;;;;;;;;;;;14.20;96.30;;;;;;5090273;28;19916;-70
2021/06/06 09:44:32;;;;;;;;;;;14.20;96.20;;;;;;5078798;28;19912;-70
2021/06/06 09:47:00;;;;;;;;;;;14.20;96.00;;;;;;5095616;28;20284;-70
2021/06/06 09:49:34;;;;;;;;;;;14.20;96.30;;;;;;5094549;28;19959;-70
2021/06/06 09:52:14;;;;;;;;;;;14.10;96.20;;;;;;5084079;28;19969;-70
2021/06/06 09:54:41;;;;;;;;;;;14.10;95.80;;;;;;5086836;28;19951;-70
2021/06/06 09:57:26;;;;;;;;;;;14.10;95.90;;;;;;5094499;28;20003;-70
2021/06/06 09:59:52;;;;;;;;;;;14.20;96.00;;;;;;5093758;28;20229;-70
2021/06/06 10:02:26;;;;;;;;;;;14.20;96.10;;;;;;5091662;28;20296;-70
2021/06/06 10:04:58;;;;;;;;;;;14.30;96.00;;;;;;5091962;28;19916;-70
2021/06/06 10:07:33;;;;;;;;;;;14.30;95.80;;;;;;5087590;28;20236;-70
2021/06/06 10:10:00;;;;;;;;;;;14.30;95.90;;;;;;5091537;28;20255;-70
2021/06/06 10:12:38;;;;;;;;;;;14.40;96.10;;;;;;5095870;28;19949;-70
2021/06/06 10:15:13;;;;;;;;;;;14.30;95.80;;;;;;5088029;28;19917;-70
2021/06/06 10:17:47;;;;;;;;;;;14.30;95.80;;;;;;5087677;28;20348;-70
2021/06/06 10:20:21;;;;;;;;;;;14.30;96.00;;;;;;5094769;28;19908;-70
2021/06/06 10:23:07;;;;;;;;;;;14.40;95.90;;;;;;5091389;28;19935;-70
2021/06/06 10:25:48;;;;;;;;;;;14.40;95.90;;;;;;5074275;28;19912;-70
2021/06/06 10:28:18;;;;;;;;;;;14.30;96.10;;;;;;5063875;28;20258;-70
2021/06/06 10:30:48;;;;;;;;;;;14.30;95.90;;;;;;5092815;28;20220;-70
2021/06/06 10:33:17;;;;;;;;;;;14.30;95.80;;;;;;5089829;28;19920;-70
2021/06/06 10:35:43;;;;;;;;;;;14.30;95.80;;;;;;5095378;28;20308;-71
2021/06/06 10:38:09;;;;;;;;;;;14.20;95.70;;;;;;5091227;28;19927;-71
2021/06/06 10:40:37;;;;;;;;;;;14.20;95.80;;;;;;5072495;28;20266;-70
2021/06/06 10:43:08;;;;;;;;;;;14.20;95.50;;;;;;5093228;28;19919;-70
2021/06/06 10:45:49;;;;;;;;;;;14.30;95.70;;;;;;5095509;28;20285;-70
2021/06/06 10:48:15;;;;;;;;;;;14.40;95.60;;;;;;5073853;28;19908;-70
2021/06/06 10:50:42;;;;;;;;;;;14.50;95.60;;;;;;5092323;28;19912;-70
2021/06/06 10:53:13;;;;;;;;;;;14.60;95.60;;;;;;5071116;28;19919;-70
2021/06/06 10:55:50;;;;;;;;;;;14.70;95.90;;;;;;5079735;28;20010;-70
2021/06/06 10:58:18;;;;;;;;;;;14.70;95.90;;;;;;5088048;28;19912;-70
2021/06/06 11:00:54;;;;;;;;;;;14.60;96.20;;;;;;5088306;28;19912;-70
2021/06/06 11:03:22;;;;;;;;;;;14.50;96.10;;;;;;5084134;28;19917;-70
2021/06/06 11:05:50;;;;;;;;;;;14.50;95.90;;;;;;5094328;28;19912;-70
2021/06/06 11:08:17;;;;;;;;;;;14.50;96.10;;;;;;5092343;28;19908;-70
2021/06/06 11:10:43;;;;;;;;;;;14.50;96.10;;;;;;5086251;28;20228;-70
2021/06/06 11:13:29;;;;;;;;;;;14.50;96.00;;;;;;5093664;28;19912;-70
2021/06/06 11:16:00;;;;;;;;;;;14.50;96.00;;;;;;5093791;28;20029;-70
2021/06/06 11:18:26;;;;;;;;;;;14.50;96.10;;;;;;5092082;28;20353;-70
2021/06/06 11:20:55;;;;;;;;;;;14.50;95.80;;;;;;5090951;28;19919;-70
2021/06/06 11:23:32;;;;;;;;;;;14.50;95.90;;;;;;5089866;28;19928;-70
2021/06/06 11:25:58;;;;;;;;;;;14.40;96.20;;;;;;5092521;28;19948;-70
2021/06/06 11:28:29;;;;;;;;;;;14.30;95.80;;;;;;5076338;28;19966;-70
2021/06/06 11:30:55;;;;;;;;;;;14.30;95.70;;;;;;5085936;28;19912;-70
2021/06/06 11:33:32;;;;;;;;;;;14.30;95.70;;;;;;5093110;28;20011;-70
2021/06/06 11:36:02;;;;;;;;;;;14.30;95.90;;;;;;5086467;28;19922;-70
2021/06/06 11:38:31;;;;;;;;;;;14.30;95.80;;;;;;5077286;28;19913;-70
2021/06/06 11:41:12;;;;;;;;;;;14.40;95.70;;;;;;5093063;28;19912;-70
2021/06/06 11:43:42;;;;;;;;;;;14.50;95.70;;;;;;5090055;28;19920;-70
2021/06/06 11:46:11;;;;;;;;;;;14.60;95.70;;;;;;5094461;28;19960;-70
2021/06/06 11:48:44;;;;;;;;;;;14.60;96.30;;;;;;5091711;28;20006;-70
2021/06/06 11:51:16;;;;;;;;;;;14.60;96.20;;;;;;5085025;28;19923;-70
2021/06/06 11:53:42;;;;;;;;;;;14.60;96.40;;;;;;5089405;28;20317;-70
2021/06/06 11:56:15;;;;;;;;;;;14.70;96.40;;;;;;5090315;28;19958;-70
2021/06/06 11:58:43;;;;;;;;;;;14.80;96.20;;;;;;5085654;28;19912;-70
2021/06/06 12:01:13;;;;;;;;;;;14.80;96.60;;;;;;5098550;28;19916;-70
2021/06/06 12:03:41;;;;;;;;;;;14.90;96.30;;;;;;5092945;28;19975;-70
2021/06/06 12:06:26;;;;;;;;;;;14.90;96.70;;;;;;5076623;28;19926;-70
2021/06/06 12:08:58;;;;;;;;;;;15.00;96.30;;;;;;5096886;28;20257;-69
2021/06/06 12:11:33;;;;;;;;;;;15.00;96.50;;;;;;5093448;28;20006;-71
2021/06/06 12:14:09;;;;;;;;;;;14.90;96.70;;;;;;5092884;28;19920;-71
2021/06/06 12:16:35;;;;;;;;;;;14.90;96.60;;;;;;5096161;28;19920;-71
2021/06/06 12:19:03;;;;;;;;;;;14.80;96.70;;;;;;5097447;28;20382;-70
2021/06/06 12:21:32;;;;;;;;;;;14.80;96.80;;;;;;5094921;28;20220;-71
2021/06/06 12:24:17;;;;;;;;;;;14.80;96.70;;;;;;5090462;28;19916;-71
2021/06/06 12:26:45;;;;;;;;;;;14.70;96.70;;;;;;5093795;28;20002;-71
2021/06/06 12:29:11;;;;;;;;;;;14.70;96.50;;;;;;5096362;28;19920;-70
2021/06/06 12:31:42;;;;;;;;;;;14.70;96.60;;;;;;5093831;28;19916;-70
2021/06/06 12:34:28;;;;;;;;;;;14.70;96.60;;;;;;5095295;28;19919;-70
2021/06/06 12:36:57;;;;;;;;;;;14.60;96.50;;;;;;5092441;28;19912;-69
2021/06/06 12:39:23;;;;;;;;;;;14.60;96.30;;;;;;5075354;28;19927;-70
2021/06/06 12:41:51;;;;;;;;;;;14.60;96.30;;;;;;5097155;28;19916;-70
2021/06/06 12:44:19;;;;;;;;;;;14.50;96.50;;;;;;5092599;28;20600;-70
2021/06/06 12:46:44;;;;;;;;;;;14.50;96.40;;;;;;5096340;28;20301;-70
2021/06/06 12:49:10;;;;;;;;;;;14.50;96.20;;;;;;5089505;28;19919;-70
2021/06/06 12:51:44;;;;;;;;;;;14.50;96.30;;;;;;5093033;28;19912;-69
2021/06/06 12:54:17;;;;;;;;;;;14.50;96.20;;;;;;5092254;28;19920;-70
2021/06/06 12:56:43;;;;;;;;;;;14.50;96.10;;;;;;5095083;28;19912;-70
2021/06/06 12:59:14;;;;;;;;;;;14.50;96.30;;;;;;5094889;28;19912;-70
2021/06/06 13:01:40;;;;;;;;;;;14.60;96.20;;;;;;5094831;28;19973;-70
2021/06/06 13:04:18;;;;;;;;;;;14.60;96.10;;;;;;5075751;28;19931;-70
2021/06/06 13:06:44;;;;;;;;;;;14.70;96.30;;;;;;5093068;28;19968;-70
2021/06/06 13:09:18;;;;;;;;;;;14.80;96.60;;;;;;5078497;28;20015;-70
2021/06/06 13:11:44;;;;;;;;;;;14.80;96.30;;;;;;5090720;28;19947;-70
2021/06/06 13:14:21;;;;;;;;;;;14.60;96.60;;;;;;5090761;28;19913;-69
2021/06/06 13:16:55;;;;;;;;;;;14.60;96.40;;;;;;5091523;28;20392;-70
2021/06/06 13:19:24;;;;;;;;;;;14.50;96.60;;;;;;5091144;28;21697;-70
2021/06/06 13:21:55;;;;;;;;;;;14.40;96.40;;;;;;5083935;28;19920;-70
2021/06/06 13:24:28;;;;;;;;;;;14.40;96.40;;;;;;5095542;28;19973;-70
2021/06/06 13:27:00;;;;;;;;;;;14.40;96.30;;;;;;5076195;28;22890;-70
2021/06/06 13:29:34;;;;;;;;;;;14.40;96.30;;;;;;5095052;28;19912;-70
2021/06/06 13:32:26;;;;;;;;;;;14.50;95.90;;;;;;5078966;28;19962;-68
2021/06/06 13:34:54;;;;;;;;;;;14.50;96.00;;;;;;5084098;28;19956;-70
2021/06/06 13:37:39;;;;;;;;;;;14.50;95.90;;;;;;5052545;28;19918;-69
2021/06/06 13:40:06;;;;;;;;;;;14.50;96.10;;;;;;5076025;28;19965;-70
2021/06/06 13:42:33;;;;;;;;;;;14.60;96.00;;;;;;5090793;28;20295;-70
2021/06/06 13:45:02;;;;;;;;;;;14.70;96.00;;;;;;5092272;28;19916;-70
2021/06/06 13:47:27;;;;;;;;;;;14.80;96.20;;;;;;5091413;28;19955;-70
2021/06/06 13:49:54;;;;;;;;;;;14.80;96.10;;;;;;5095469;28;19951;-70
2021/06/06 13:52:20;;;;;;;;;;;14.80;96.20;;;;;;5092808;28;19957;-70
2021/06/06 13:54:45;;;;;;;;;;;14.80;96.40;;;;;;5093308;28;19912;-70
2021/06/06 13:57:11;;;;;;;;;;;14.70;96.30;;;;;;5094291;28;21855;-70
2021/06/06 13:59:36;;;;;;;;;;;14.70;96.20;;;;;;5087458;28;20285;-70
2021/06/06 14:02:03;;;;;;;;;;;14.70;96.10;;;;;;5093132;28;19959;-70
2021/06/06 14:04:28;;;;;;;;;;;14.70;96.40;;;;;;5087258;28;19919;-70
2021/06/06 14:06:54;;;;;;;;;;;14.60;96.30;;;;;;5091151;28;19912;-70
2021/06/06 14:09:21;;;;;;;;;;;14.60;96.40;;;;;;5091106;28;20293;-69
2021/06/06 14:11:49;;;;;;;;;;;14.60;96.10;;;;;;5090226;28;19922;-69
2021/06/06 14:14:15;;;;;;;;;;;14.70;96.20;;;;;;5091173;28;19912;-69
2021/06/06 14:16:41;;;;;;;;;;;14.80;96.20;;;;;;5092190;28;20283;-69
2021/06/06 14:19:09;;;;;;;;;;;14.90;95.80;;;;;;5092505;28;19916;-68
2021/06/06 14:21:34;;;;;;;;;;;14.90;96.60;;;;;;5083234;28;20323;-69
2021/06/06 14:24:01;;;;;;;;;;;14.80;96.40;;;;;;5086095;28;19920;-68
2021/06/06 14:26:28;;;;;;;;;;;14.70;96.40;;;;;;5085179;28;19916;-70